PADU

Details ICAO PADU (DUT)
Name UNALASKA
Region USA (Alaska)
Timezone America/Adak (UTC-9.0)
Plans Departing 37
Arriving 45
Stats Elevation 22 ft / 7 m (AMSL)
Location 53.899070° -166.545064°
Runways 1
Magnetic Variation 9.208° E
Sunrise 2017-07-25 15:10:37 UTC / 2017-07-25 06:10:37 Local
Sunset 2017-07-26 07:17:04 UTC / 2017-07-25 22:17:04 Local
Advertisement - Login to hide

Runways

ID Width Length Bearing (true) Bearing (mag) Surface Threshold Offset Overrun Length
12 100 ft / 30 m 3,895 ft / 1,187 m 135.64° 126.43° Asphalt 100 ft / 30 m 0 ft / 0 m
30 100 ft / 30 m 3,895 ft / 1,187 m 315.65° 306.44° Asphalt 101 ft / 31 m 0 ft / 0 m

Map

Weather


0- 5 10 15 20 25 30 35+ Temperature / ° C

Clouds and Precipitation
Forecast for 2017-07-26 00:00 UTC. Updated an hour ago

Ground ~20,000 ft ~40,000 ft Winds

METAR

PADU 252156Z 22013KT 10SM FEW080 15/11 A3019 RMK AO2 SLP222 MH T01500106

TAF

PADU 251725Z 2518/2618 22011KT P6SM FEW020 FM260000 25011KT P6SM SCT200 FM260400 28011KT P6SM BKN020 FM261500 28011KT 4SM -RA BR OVC015

Frequencies

Recorded 125.80 MHz AWOS 3
Unicom 122.60 MHz CTAF
Warning: Do not use this data for real-world aviation or navigation. No guarantee of current accuracy is given.